MSC Bari — A8YD3 — position and weather

sailwx.info

Track history (hours):
 
Tides and Currents Weather Stations Pressure Air Temp Water Temp Dewpoint Dewpoint Depression Visibility Wind Speed Wind Dir Waves Ship Positions

MSC Bari

Last reported at 2015-Aug-26 17:33 UTC. Time now 2015-Sep-05 01:16 UTC.
Position N 03°03' E 100°48'.
Warning: this ship's position is 9 days out of date.

Length 366 m; draft 13.4 m.

Type: Ship (hazmat cat A). MMSI: 636092188.

Date/timePositionNaut miles runAvg speedWind from/ knotsBaromVisibWave heightAir tempDewpointWater temp
2015-Aug-26 17:33N 03°03' E 100°48'3919.4
2015-Aug-26 15:33N 02°40' E 101°19'4120.4
2015-Aug-26 13:33N 02°17' E 101°53'12617.9
2015-Aug-26 06:32N 01°14' E 103°42'5 4.5
2015-Aug-26 05:29N 01°17' E 103°46'0 0.0
2015-Aug-26 04:32N 01°17' E 103°46'0 0.1
2015-Aug-26 03:29N 01°17' E 103°45'0 0.1
2015-Aug-26 02:29N 01°17' E 103°46'0 0.0
2015-Aug-26 01:32N 01°17' E 103°46'0 0.0
2015-Aug-26 00:32N 01°17' E 103°46'0 0.1
2015-Aug-25 23:32N 01°17' E 103°45'0 0.0
2015-Aug-25 22:32N 01°17' E 103°45'0 0.0
2015-Aug-25 21:32N 01°17' E 103°45'0 0.1
2015-Aug-25 20:29N 01°17' E 103°46'0 0.0
2015-Aug-25 19:32N 01°17' E 103°46'0 0.0
2015-Aug-25 18:32N 01°17' E 103°46'0 0.1
2015-Aug-25 17:32N 01°17' E 103°45'0 0.0
2015-Aug-25 16:32N 01°17' E 103°45'0 0.1
2015-Aug-25 15:32N 01°17' E 103°46'0 0.1
2015-Aug-25 14:32N 01°17' E 103°45'0 0.1
2015-Aug-25 13:32N 01°17' E 103°46'0 0.0
2015-Aug-25 12:32N 01°17' E 103°46'0 0.0
2015-Aug-25 11:32N 01°17' E 103°46'0 0.0
2015-Aug-25 10:32N 01°17' E 103°46'0 0.0
2015-Aug-25 09:32N 01°17' E 103°46'0 0.1
2015-Aug-25 08:29N 01°17' E 103°45'0 0.3
2015-Aug-25 07:33N 01°17' E 103°45'4 3.5
2015-Aug-25 06:33N 01°14' E 103°47'6 6.0
2015-Aug-25 05:33N 01°13' E 103°53'6 6.4
2015-Aug-25 04:33N 01°15' E 103°60'  
2015-Aug-21 23:32N 22°07' E 113°51'1212.3
2015-Aug-21 22:33N 22°19' E 113°48'9 9.2
2015-Aug-21 21:33N 22°28' E 113°52'0 0.2
2015-Aug-21 20:27N 22°28' E 113°53'0 0.0
2015-Aug-21 19:33N 22°28' E 113°53'0 0.0
2015-Aug-21 10:09N 22°28' E 113°53'0 0.0
2015-Aug-21 09:33N 22°28' E 113°53'0 0.0
2015-Aug-21 08:27N 22°28' E 113°53'0 0.0
2015-Aug-21 07:27N 22°28' E 113°53'0 0.0
2015-Aug-21 06:27N 22°28' E 113°53'6 6.2
2015-Aug-21 05:33N 22°23' E 113°50'1110.6
2015-Aug-21 04:33N 22°12' E 113°50'32 8.0
2015-Aug-21 00:33N 21°59' E 114°22'4 0.8
2015-Aug-20 19:33N 21°60' E 114°26'0 0.2
2015-Aug-20 18:27N 21°59' E 114°25'1 0.5
2015-Aug-20 17:18N 21°59' E 114°25'1 0.4
2015-Aug-20 14:33N 21°59' E 114°27'15511.0
2015-Aug-20 00:28N 22°55' E 117°03'1010.4
2015-Aug-19 23:33N 23°01' E 117°12'5110.3
2015-Aug-19 18:32N 23°35' E 117°54'12 9.7
2015-Aug-19 17:19N 23°42' E 118°04'7 9.5
2015-Aug-19 16:33N 23°48' E 118°08'10 9.4
2015-Aug-19 15:30N 23°56' E 118°15'8 8.8
2015-Aug-19 14:33N 24°03' E 118°20'10 8.7
2015-Aug-19 13:24N 24°13' E 118°17'910.5
2015-Aug-19 12:32N 24°20' E 118°11'1010.3
2015-Aug-19 11:33N 24°26' E 118°02'0 0.4
2015-Aug-19 10:32N 24°26' E 118°02'0 0.0
2015-Aug-19 09:33N 24°26' E 118°02'0 0.0
2015-Aug-19 08:33N 24°26' E 118°02'0 0.0
2015-Aug-19 07:33N 24°26' E 118°02'0 0.0
2015-Aug-19 05:15N 24°26' E 118°02'0 0.0
2015-Aug-19 03:32N 24°26' E 118°02'0 0.0
2015-Aug-19 00:20N 24°26' E 118°02'0 0.0
2015-Aug-18 23:32N 24°26' E 118°02'0 0.0
2015-Aug-18 22:32N 24°26' E 118°02'0 0.2
2015-Aug-18 21:32N 24°26' E 118°02'9 8.8
2015-Aug-18 20:33N 24°21' E 118°10'1212.1
2015-Aug-18 19:33N 24°12' E 118°19'1817.5
2015-Aug-18 18:32N 24°14' E 118°38'1818.4
2015-Aug-18 17:33N 24°22' E 118°56'1818.0
2015-Aug-18 16:33N 24°31' E 119°13'35317.6
2015-Aug-17 20:33N 29°36' E 122°31'1715.5
2015-Aug-17 19:29N 29°47' E 122°16'1111.5
2015-Aug-17 18:29N 29°55' E 122°08'4 0.2
2015-Aug-16 22:08N 29°54' E 122°03'5 7.3
2015-Aug-16 21:30N 29°56' E 122°08'1010.4
2015-Aug-16 20:33N 29°48' E 122°15'9 8.0
2015-Aug-16 19:28N 29°44' E 122°24'7 6.9
2015-Aug-16 18:28N 29°46' E 122°32'  
Track history (hours):
 
Tides and Currents Weather Stations Pressure Air Temp Water Temp Dewpoint Dewpoint Depression Visibility Wind Speed Wind Dir Waves Ship Positions

MSC Bari

Last reported at 2015-Aug-26 17:33 UTC. Time now 2015-Sep-05 01:16 UTC.
Position N 03°03' E 100°48'.
Warning: this ship's position is 9 days out of date.

Length 366 m; draft 13.4 m.

Type: Ship (hazmat cat A). MMSI: 636092188.

Date/timePositionNaut miles runAvg speedWind from/ knotsBaromVisibWave heightAir tempDewpointWater temp
2015-Aug-26 17:33N 03°03' E 100°48'3919.4
2015-Aug-26 15:33N 02°40' E 101°19'4120.4
2015-Aug-26 13:33N 02°17' E 101°53'12617.9
2015-Aug-26 06:32N 01°14' E 103°42'5 4.5
2015-Aug-26 05:29N 01°17' E 103°46'0 0.0
2015-Aug-26 04:32N 01°17' E 103°46'0 0.1
2015-Aug-26 03:29N 01°17' E 103°45'0 0.1
2015-Aug-26 02:29N 01°17' E 103°46'0 0.0
2015-Aug-26 01:32N 01°17' E 103°46'0 0.0
2015-Aug-26 00:32N 01°17' E 103°46'0 0.1
2015-Aug-25 23:32N 01°17' E 103°45'0 0.0
2015-Aug-25 22:32N 01°17' E 103°45'0 0.0
2015-Aug-25 21:32N 01°17' E 103°45'0 0.1
2015-Aug-25 20:29N 01°17' E 103°46'0 0.0
2015-Aug-25 19:32N 01°17' E 103°46'0 0.0
2015-Aug-25 18:32N 01°17' E 103°46'0 0.1
2015-Aug-25 17:32N 01°17' E 103°45'0 0.0
2015-Aug-25 16:32N 01°17' E 103°45'0 0.1
2015-Aug-25 15:32N 01°17' E 103°46'0 0.1
2015-Aug-25 14:32N 01°17' E 103°45'0 0.1
2015-Aug-25 13:32N 01°17' E 103°46'0 0.0
2015-Aug-25 12:32N 01°17' E 103°46'0 0.0
2015-Aug-25 11:32N 01°17' E 103°46'0 0.0
2015-Aug-25 10:32N 01°17' E 103°46'0 0.0
2015-Aug-25 09:32N 01°17' E 103°46'0 0.1
2015-Aug-25 08:29N 01°17' E 103°45'0 0.3
2015-Aug-25 07:33N 01°17' E 103°45'4 3.5
2015-Aug-25 06:33N 01°14' E 103°47'6 6.0
2015-Aug-25 05:33N 01°13' E 103°53'6 6.4
2015-Aug-25 04:33N 01°15' E 103°60'  
2015-Aug-21 23:32N 22°07' E 113°51'1212.3
2015-Aug-21 22:33N 22°19' E 113°48'9 9.2
2015-Aug-21 21:33N 22°28' E 113°52'0 0.2
2015-Aug-21 20:27N 22°28' E 113°53'0 0.0
2015-Aug-21 19:33N 22°28' E 113°53'0 0.0
2015-Aug-21 10:09N 22°28' E 113°53'0 0.0
2015-Aug-21 09:33N 22°28' E 113°53'0 0.0
2015-Aug-21 08:27N 22°28' E 113°53'0 0.0
2015-Aug-21 07:27N 22°28' E 113°53'0 0.0
2015-Aug-21 06:27N 22°28' E 113°53'6 6.2
2015-Aug-21 05:33N 22°23' E 113°50'1110.6
2015-Aug-21 04:33N 22°12' E 113°50'32 8.0
2015-Aug-21 00:33N 21°59' E 114°22'4 0.8
2015-Aug-20 19:33N 21°60' E 114°26'0 0.2
2015-Aug-20 18:27N 21°59' E 114°25'1 0.5
2015-Aug-20 17:18N 21°59' E 114°25'1 0.4
2015-Aug-20 14:33N 21°59' E 114°27'15511.0
2015-Aug-20 00:28N 22°55' E 117°03'1010.4
2015-Aug-19 23:33N 23°01' E 117°12'5110.3
2015-Aug-19 18:32N 23°35' E 117°54'12 9.7
2015-Aug-19 17:19N 23°42' E 118°04'7 9.5
2015-Aug-19 16:33N 23°48' E 118°08'10 9.4
2015-Aug-19 15:30N 23°56' E 118°15'8 8.8
2015-Aug-19 14:33N 24°03' E 118°20'10 8.7
2015-Aug-19 13:24N 24°13' E 118°17'910.5
2015-Aug-19 12:32N 24°20' E 118°11'1010.3
2015-Aug-19 11:33N 24°26' E 118°02'0 0.4
2015-Aug-19 10:32N 24°26' E 118°02'0 0.0
2015-Aug-19 09:33N 24°26' E 118°02'0 0.0
2015-Aug-19 08:33N 24°26' E 118°02'0 0.0
2015-Aug-19 07:33N 24°26' E 118°02'0 0.0
2015-Aug-19 05:15N 24°26' E 118°02'0 0.0
2015-Aug-19 03:32N 24°26' E 118°02'0 0.0
2015-Aug-19 00:20N 24°26' E 118°02'0 0.0
2015-Aug-18 23:32N 24°26' E 118°02'0 0.0
2015-Aug-18 22:32N 24°26' E 118°02'0 0.2
2015-Aug-18 21:32N 24°26' E 118°02'9 8.8
2015-Aug-18 20:33N 24°21' E 118°10'1212.1
2015-Aug-18 19:33N 24°12' E 118°19'1817.5
2015-Aug-18 18:32N 24°14' E 118°38'1818.4
2015-Aug-18 17:33N 24°22' E 118°56'1818.0
2015-Aug-18 16:33N 24°31' E 119°13'35317.6
2015-Aug-17 20:33N 29°36' E 122°31'1715.5
2015-Aug-17 19:29N 29°47' E 122°16'1111.5
2015-Aug-17 18:29N 29°55' E 122°08'4 0.2
2015-Aug-16 22:08N 29°54' E 122°03'5 7.3
2015-Aug-16 21:30N 29°56' E 122°08'1010.4
2015-Aug-16 20:33N 29°48' E 122°15'9 8.0
2015-Aug-16 19:28N 29°44' E 122°24'7 6.9
2015-Aug-16 18:28N 29°46' E 122°32'  

Dump ship's entire track history